sensor_id;sensor_type;location;lat;lon;timestamp;P1;durP1;ratioP1;P2;durP2;ratioP2
50737;SDS011;36703;48.154;17.126;2023-03-05T00:03:24;15.52;;;7.72;;
50737;SDS011;36703;48.154;17.126;2023-03-05T00:07:25;13.35;;;7.35;;
50737;SDS011;36703;48.154;17.126;2023-03-05T00:11:27;18.02;;;7.95;;
50737;SDS011;36703;48.154;17.126;2023-03-05T00:15:30;15.75;;;7.63;;
50737;SDS011;36703;48.154;17.126;2023-03-05T00:19:31;14.43;;;8.05;;
50737;SDS011;36703;48.154;17.126;2023-03-05T00:23:33;16.45;;;8.52;;
50737;SDS011;36703;48.154;17.126;2023-03-05T00:27:34;16.15;;;8.15;;
50737;SDS011;36703;48.154;17.126;2023-03-05T00:31:36;16.02;;;8.60;;
50737;SDS011;36703;48.154;17.126;2023-03-05T00:35:42;15.90;;;8.18;;
50737;SDS011;36703;48.154;17.126;2023-03-05T00:39:45;16.23;;;8.38;;
50737;SDS011;36703;48.154;17.126;2023-03-05T00:43:47;19.05;;;8.70;;
50737;SDS011;36703;48.154;17.126;2023-03-05T00:47:49;17.30;;;8.35;;
50737;SDS011;36703;48.154;17.126;2023-03-05T00:51:50;18.52;;;8.90;;
50737;SDS011;36703;48.154;17.126;2023-03-05T00:55:52;17.90;;;9.27;;
50737;SDS011;36703;48.154;17.126;2023-03-05T00:59:54;19.10;;;9.40;;
50737;SDS011;36703;48.154;17.126;2023-03-05T01:03:55;18.10;;;9.45;;
50737;SDS011;36703;48.154;17.126;2023-03-05T01:07:58;20.42;;;10.20;;
50737;SDS011;36703;48.154;17.126;2023-03-05T01:11:59;19.65;;;9.95;;
50737;SDS011;36703;48.154;17.126;2023-03-05T01:16:01;20.02;;;9.95;;
50737;SDS011;36703;48.154;17.126;2023-03-05T01:20:04;18.33;;;9.60;;
50737;SDS011;36703;48.154;17.126;2023-03-05T01:24:08;19.75;;;10.55;;
50737;SDS011;36703;48.154;17.126;2023-03-05T01:28:10;18.83;;;10.20;;
50737;SDS011;36703;48.154;17.126;2023-03-05T01:32:12;17.20;;;9.35;;
50737;SDS011;36703;48.154;17.126;2023-03-05T01:36:13;19.00;;;10.25;;
50737;SDS011;36703;48.154;17.126;2023-03-05T01:40:18;20.10;;;10.13;;
50737;SDS011;36703;48.154;17.126;2023-03-05T01:44:31;21.10;;;11.02;;
50737;SDS011;36703;48.154;17.126;2023-03-05T01:48:33;20.08;;;10.02;;
50737;SDS011;36703;48.154;17.126;2023-03-05T01:52:35;19.45;;;10.35;;
50737;SDS011;36703;48.154;17.126;2023-03-05T01:56:41;20.65;;;10.30;;
50737;SDS011;36703;48.154;17.126;2023-03-05T02:00:47;21.52;;;10.80;;
50737;SDS011;36703;48.154;17.126;2023-03-05T02:05:09;18.83;;;10.57;;
50737;SDS011;36703;48.154;17.126;2023-03-05T02:09:13;19.40;;;11.10;;
50737;SDS011;36703;48.154;17.126;2023-03-05T02:13:17;20.95;;;11.02;;
50737;SDS011;36703;48.154;17.126;2023-03-05T02:17:26;20.08;;;11.00;;
50737;SDS011;36703;48.154;17.126;2023-03-05T02:21:34;19.42;;;11.07;;
50737;SDS011;36703;48.154;17.126;2023-03-05T02:25:45;19.67;;;10.90;;
50737;SDS011;36703;48.154;17.126;2023-03-05T02:29:47;19.77;;;10.35;;
50737;SDS011;36703;48.154;17.126;2023-03-05T02:33:50;20.10;;;10.52;;
50737;SDS011;36703;48.154;17.126;2023-03-05T02:37:54;18.02;;;10.20;;
50737;SDS011;36703;48.154;17.126;2023-03-05T02:41:56;19.80;;;11.18;;
50737;SDS011;36703;48.154;17.126;2023-03-05T02:45:57;19.80;;;10.73;;
50737;SDS011;36703;48.154;17.126;2023-03-05T02:49:59;22.60;;;11.27;;
50737;SDS011;36703;48.154;17.126;2023-03-05T02:54:01;18.15;;;10.40;;
50737;SDS011;36703;48.154;17.126;2023-03-05T02:58:04;18.23;;;10.38;;
50737;SDS011;36703;48.154;17.126;2023-03-05T03:02:05;17.52;;;10.00;;
50737;SDS011;36703;48.154;17.126;2023-03-05T03:06:07;17.85;;;10.27;;
50737;SDS011;36703;48.154;17.126;2023-03-05T03:10:09;18.05;;;10.07;;
50737;SDS011;36703;48.154;17.126;2023-03-05T03:14:11;20.88;;;10.35;;
50737;SDS011;36703;48.154;17.126;2023-03-05T03:18:13;20.42;;;11.30;;
50737;SDS011;36703;48.154;17.126;2023-03-05T03:22:14;21.30;;;11.07;;
50737;SDS011;36703;48.154;17.126;2023-03-05T03:26:16;20.55;;;10.15;;
50737;SDS011;36703;48.154;17.126;2023-03-05T03:30:18;23.42;;;10.98;;
50737;SDS011;36703;48.154;17.126;2023-03-05T03:34:20;20.85;;;11.27;;
50737;SDS011;36703;48.154;17.126;2023-03-05T03:38:21;20.02;;;10.77;;
50737;SDS011;36703;48.154;17.126;2023-03-05T03:42:23;19.35;;;11.40;;
50737;SDS011;36703;48.154;17.126;2023-03-05T03:46:25;19.73;;;11.00;;
50737;SDS011;36703;48.154;17.126;2023-03-05T03:50:27;22.52;;;11.70;;
50737;SDS011;36703;48.154;17.126;2023-03-05T03:54:28;20.92;;;11.30;;
50737;SDS011;36703;48.154;17.126;2023-03-05T03:58:30;19.27;;;11.35;;
50737;SDS011;36703;48.154;17.126;2023-03-05T04:02:32;22.98;;;11.43;;
50737;SDS011;36703;48.154;17.126;2023-03-05T04:06:34;21.33;;;11.63;;
50737;SDS011;36703;48.154;17.126;2023-03-05T04:10:35;23.27;;;11.43;;
50737;SDS011;36703;48.154;17.126;2023-03-05T04:14:39;19.92;;;11.23;;
50737;SDS011;36703;48.154;17.126;2023-03-05T04:18:41;23.38;;;11.88;;
50737;SDS011;36703;48.154;17.126;2023-03-05T04:22:43;20.80;;;11.77;;
50737;SDS011;36703;48.154;17.126;2023-03-05T04:26:44;21.48;;;11.63;;
50737;SDS011;36703;48.154;17.126;2023-03-05T04:30:46;21.58;;;11.60;;
50737;SDS011;36703;48.154;17.126;2023-03-05T04:34:47;20.23;;;12.02;;
50737;SDS011;36703;48.154;17.126;2023-03-05T04:38:49;25.38;;;12.85;;
50737;SDS011;36703;48.154;17.126;2023-03-05T04:42:51;23.00;;;11.50;;
50737;SDS011;36703;48.154;17.126;2023-03-05T04:46:52;21.65;;;11.88;;
50737;SDS011;36703;48.154;17.126;2023-03-05T04:50:54;23.70;;;12.85;;
50737;SDS011;36703;48.154;17.126;2023-03-05T04:54:57;20.13;;;11.70;;
50737;SDS011;36703;48.154;17.126;2023-03-05T04:58:59;25.75;;;13.02;;
50737;SDS011;36703;48.154;17.126;2023-03-05T05:03:00;22.95;;;12.27;;
50737;SDS011;36703;48.154;17.126;2023-03-05T05:07:02;22.42;;;12.55;;
50737;SDS011;36703;48.154;17.126;2023-03-05T05:11:05;21.83;;;12.30;;
50737;SDS011;36703;48.154;17.126;2023-03-05T05:15:08;19.75;;;11.95;;
50737;SDS011;36703;48.154;17.126;2023-03-05T05:19:11;20.27;;;11.55;;
50737;SDS011;36703;48.154;17.126;2023-03-05T05:23:13;21.35;;;12.30;;
50737;SDS011;36703;48.154;17.126;2023-03-05T05:27:15;21.23;;;12.05;;
50737;SDS011;36703;48.154;17.126;2023-03-05T05:31:16;21.45;;;11.90;;
50737;SDS011;36703;48.154;17.126;2023-03-05T05:35:18;23.23;;;12.55;;
50737;SDS011;36703;48.154;17.126;2023-03-05T05:39:20;22.00;;;11.80;;
50737;SDS011;36703;48.154;17.126;2023-03-05T05:43:22;22.67;;;11.57;;
50737;SDS011;36703;48.154;17.126;2023-03-05T05:47:23;20.85;;;11.93;;
50737;SDS011;36703;48.154;17.126;2023-03-05T05:51:25;20.08;;;11.38;;
50737;SDS011;36703;48.154;17.126;2023-03-05T05:55:26;21.33;;;11.40;;
50737;SDS011;36703;48.154;17.126;2023-03-05T05:59:28;22.30;;;11.60;;
50737;SDS011;36703;48.154;17.126;2023-03-05T06:03:29;17.77;;;11.38;;
50737;SDS011;36703;48.154;17.126;2023-03-05T06:07:32;19.25;;;11.07;;
50737;SDS011;36703;48.154;17.126;2023-03-05T06:11:35;19.17;;;11.23;;
50737;SDS011;36703;48.154;17.126;2023-03-05T06:15:38;19.60;;;10.93;;
50737;SDS011;36703;48.154;17.126;2023-03-05T06:19:39;17.75;;;10.43;;
50737;SDS011;36703;48.154;17.126;2023-03-05T06:23:41;21.02;;;11.38;;
50737;SDS011;36703;48.154;17.126;2023-03-05T06:27:45;19.75;;;11.52;;
50737;SDS011;36703;48.154;17.126;2023-03-05T06:31:46;19.00;;;11.82;;
50737;SDS011;36703;48.154;17.126;2023-03-05T06:35:48;21.98;;;11.75;;
50737;SDS011;36703;48.154;17.126;2023-03-05T06:39:49;21.52;;;11.40;;
50737;SDS011;36703;48.154;17.126;2023-03-05T06:43:51;19.17;;;11.23;;
50737;SDS011;36703;48.154;17.126;2023-03-05T06:47:54;23.80;;;11.07;;
50737;SDS011;36703;48.154;17.126;2023-03-05T06:51:55;18.50;;;11.05;;
50737;SDS011;36703;48.154;17.126;2023-03-05T06:55:59;21.95;;;11.57;;
50737;SDS011;36703;48.154;17.126;2023-03-05T07:00:03;20.23;;;11.57;;
50737;SDS011;36703;48.154;17.126;2023-03-05T07:04:11;19.65;;;10.93;;
50737;SDS011;36703;48.154;17.126;2023-03-05T07:08:14;19.23;;;10.85;;
50737;SDS011;36703;48.154;17.126;2023-03-05T07:12:16;21.45;;;11.80;;
50737;SDS011;36703;48.154;17.126;2023-03-05T07:16:22;19.65;;;10.65;;
50737;SDS011;36703;48.154;17.126;2023-03-05T07:20:26;19.55;;;10.95;;
50737;SDS011;36703;48.154;17.126;2023-03-05T07:24:29;18.05;;;10.77;;
50737;SDS011;36703;48.154;17.126;2023-03-05T07:28:31;17.83;;;10.40;;
50737;SDS011;36703;48.154;17.126;2023-03-05T07:32:33;18.40;;;11.13;;
50737;SDS011;36703;48.154;17.126;2023-03-05T07:36:35;18.08;;;10.13;;
50737;SDS011;36703;48.154;17.126;2023-03-05T07:40:37;17.33;;;10.25;;
50737;SDS011;36703;48.154;17.126;2023-03-05T07:44:39;17.35;;;10.00;;
50737;SDS011;36703;48.154;17.126;2023-03-05T07:52:42;15.00;;;9.32;;
50737;SDS011;36703;48.154;17.126;2023-03-05T07:56:43;16.67;;;9.10;;
50737;SDS011;36703;48.154;17.126;2023-03-05T08:00:45;18.98;;;10.00;;
50737;SDS011;36703;48.154;17.126;2023-03-05T08:04:46;18.50;;;10.13;;
50737;SDS011;36703;48.154;17.126;2023-03-05T08:08:48;17.85;;;10.15;;
50737;SDS011;36703;48.154;17.126;2023-03-05T08:12:50;17.85;;;10.23;;
50737;SDS011;36703;48.154;17.126;2023-03-05T08:16:51;19.55;;;11.00;;
50737;SDS011;36703;48.154;17.126;2023-03-05T08:20:53;20.63;;;11.38;;
50737;SDS011;36703;48.154;17.126;2023-03-05T08:24:54;20.63;;;10.98;;
50737;SDS011;36703;48.154;17.126;2023-03-05T08:32:58;20.67;;;11.02;;
50737;SDS011;36703;48.154;17.126;2023-03-05T08:36:59;19.48;;;10.48;;
50737;SDS011;36703;48.154;17.126;2023-03-05T08:41:01;19.30;;;11.13;;
50737;SDS011;36703;48.154;17.126;2023-03-05T08:45:03;17.40;;;10.55;;
50737;SDS011;36703;48.154;17.126;2023-03-05T08:49:06;19.65;;;11.13;;
50737;SDS011;36703;48.154;17.126;2023-03-05T08:53:07;24.95;;;12.52;;
50737;SDS011;36703;48.154;17.126;2023-03-05T09:05:13;18.10;;;10.93;;
50737;SDS011;36703;48.154;17.126;2023-03-05T09:09:14;19.45;;;10.90;;
50737;SDS011;36703;48.154;17.126;2023-03-05T09:13:16;22.77;;;11.75;;
50737;SDS011;36703;48.154;17.126;2023-03-05T09:21:19;19.67;;;11.50;;
50737;SDS011;36703;48.154;17.126;2023-03-05T09:25:20;20.30;;;10.93;;
50737;SDS011;36703;48.154;17.126;2023-03-05T09:29:22;19.17;;;11.13;;
50737;SDS011;36703;48.154;17.126;2023-03-05T09:33:24;22.98;;;12.15;;
50737;SDS011;36703;48.154;17.126;2023-03-05T09:37:26;19.58;;;11.02;;
50737;SDS011;36703;48.154;17.126;2023-03-05T09:41:50;18.25;;;11.05;;
50737;SDS011;36703;48.154;17.126;2023-03-05T09:50:49;25.35;;;12.43;;
50737;SDS011;36703;48.154;17.126;2023-03-05T09:54:54;19.98;;;11.48;;
50737;SDS011;36703;48.154;17.126;2023-03-05T09:58:59;23.15;;;11.50;;
50737;SDS011;36703;48.154;17.126;2023-03-05T10:03:29;19.73;;;10.90;;
50737;SDS011;36703;48.154;17.126;2023-03-05T10:07:44;18.73;;;10.18;;
50737;SDS011;36703;48.154;17.126;2023-03-05T10:12:04;19.52;;;10.73;;
50737;SDS011;36703;48.154;17.126;2023-03-05T10:20:53;15.55;;;10.25;;
50737;SDS011;36703;48.154;17.126;2023-03-05T10:25:23;18.25;;;10.07;;
50737;SDS011;36703;48.154;17.126;2023-03-05T10:43:46;15.82;;;9.38;;
50737;SDS011;36703;48.154;17.126;2023-03-05T10:52:37;17.55;;;9.13;;
50737;SDS011;36703;48.154;17.126;2023-03-05T10:56:46;15.40;;;9.10;;
50737;SDS011;36703;48.154;17.126;2023-03-05T11:01:02;17.20;;;9.52;;
50737;SDS011;36703;48.154;17.126;2023-03-05T11:10:01;14.70;;;8.80;;
50737;SDS011;36703;48.154;17.126;2023-03-05T11:14:22;15.93;;;9.18;;
50737;SDS011;36703;48.154;17.126;2023-03-05T11:18:31;16.25;;;8.80;;
50737;SDS011;36703;48.154;17.126;2023-03-05T11:22:37;15.60;;;8.77;;
50737;SDS011;36703;48.154;17.126;2023-03-05T11:26:46;18.02;;;9.02;;
50737;SDS011;36703;48.154;17.126;2023-03-05T11:31:39;13.23;;;8.13;;
50737;SDS011;36703;48.154;17.126;2023-03-05T11:35:31;15.10;;;7.75;;
50737;SDS011;36703;48.154;17.126;2023-03-05T11:39:35;10.43;;;6.22;;
50737;SDS011;36703;48.154;17.126;2023-03-05T11:43:38;11.25;;;6.80;;
50737;SDS011;36703;48.154;17.126;2023-03-05T11:47:45;10.25;;;5.38;;
50737;SDS011;36703;48.154;17.126;2023-03-05T11:51:58;10.07;;;5.75;;
50737;SDS011;36703;48.154;17.126;2023-03-05T11:56:23;12.18;;;5.63;;
50737;SDS011;36703;48.154;17.126;2023-03-05T12:00:34;10.18;;;5.25;;
50737;SDS011;36703;48.154;17.126;2023-03-05T12:04:38;11.35;;;5.70;;
50737;SDS011;36703;48.154;17.126;2023-03-05T12:08:40;10.45;;;5.25;;
50737;SDS011;36703;48.154;17.126;2023-03-05T12:12:52;11.15;;;5.63;;
50737;SDS011;36703;48.154;17.126;2023-03-05T12:17:09;10.27;;;5.30;;
50737;SDS011;36703;48.154;17.126;2023-03-05T12:21:38;9.32;;;5.65;;
50737;SDS011;36703;48.154;17.126;2023-03-05T12:25:47;12.23;;;6.03;;
50737;SDS011;36703;48.154;17.126;2023-03-05T12:29:56;11.00;;;6.03;;
50737;SDS011;36703;48.154;17.126;2023-03-05T12:34:18;10.10;;;5.43;;
50737;SDS011;36703;48.154;17.126;2023-03-05T12:38:38;9.75;;;5.13;;
50737;SDS011;36703;48.154;17.126;2023-03-05T12:42:44;9.35;;;4.90;;
50737;SDS011;36703;48.154;17.126;2023-03-05T12:51:26;9.65;;;5.45;;
50737;SDS011;36703;48.154;17.126;2023-03-05T13:03:59;9.90;;;5.00;;
50737;SDS011;36703;48.154;17.126;2023-03-05T13:12:27;12.18;;;5.65;;
50737;SDS011;36703;48.154;17.126;2023-03-05T13:16:35;11.48;;;5.00;;
50737;SDS011;36703;48.154;17.126;2023-03-05T13:20:39;11.70;;;5.38;;
50737;SDS011;36703;48.154;17.126;2023-03-05T13:24:42;8.48;;;4.90;;
50737;SDS011;36703;48.154;17.126;2023-03-05T13:28:44;9.38;;;4.40;;
50737;SDS011;36703;48.154;17.126;2023-03-05T13:33:15;7.60;;;4.15;;
50737;SDS011;36703;48.154;17.126;2023-03-05T13:37:23;8.52;;;4.53;;
50737;SDS011;36703;48.154;17.126;2023-03-05T13:41:28;11.07;;;4.63;;
50737;SDS011;36703;48.154;17.126;2023-03-05T13:45:30;8.10;;;4.38;;
50737;SDS011;36703;48.154;17.126;2023-03-05T13:49:32;8.55;;;4.28;;
50737;SDS011;36703;48.154;17.126;2023-03-05T13:53:33;6.68;;;4.15;;
50737;SDS011;36703;48.154;17.126;2023-03-05T13:57:36;8.20;;;4.38;;
50737;SDS011;36703;48.154;17.126;2023-03-05T14:01:41;8.45;;;4.40;;
50737;SDS011;36703;48.154;17.126;2023-03-05T14:05:44;10.43;;;4.22;;
50737;SDS011;36703;48.154;17.126;2023-03-05T14:09:48;6.40;;;4.00;;
50737;SDS011;36703;48.154;17.126;2023-03-05T14:13:57;6.18;;;3.78;;
50737;SDS011;36703;48.154;17.126;2023-03-05T14:22:29;7.38;;;4.10;;
50737;SDS011;36703;48.154;17.126;2023-03-05T14:26:37;8.85;;;4.10;;
50737;SDS011;36703;48.154;17.126;2023-03-05T14:31:14;8.25;;;4.30;;
50737;SDS011;36703;48.154;17.126;2023-03-05T14:35:21;6.82;;;3.42;;
50737;SDS011;36703;48.154;17.126;2023-03-05T14:39:26;7.07;;;4.00;;
50737;SDS011;36703;48.154;17.126;2023-03-05T14:43:28;8.35;;;4.03;;
50737;SDS011;36703;48.154;17.126;2023-03-05T14:47:30;5.65;;;3.65;;
50737;SDS011;36703;48.154;17.126;2023-03-05T14:51:32;7.10;;;3.63;;
50737;SDS011;36703;48.154;17.126;2023-03-05T14:55:39;8.65;;;3.53;;
50737;SDS011;36703;48.154;17.126;2023-03-05T14:59:43;6.32;;;3.60;;
50737;SDS011;36703;48.154;17.126;2023-03-05T15:03:45;5.50;;;3.55;;
50737;SDS011;36703;48.154;17.126;2023-03-05T15:07:46;7.32;;;3.65;;
50737;SDS011;36703;48.154;17.126;2023-03-05T15:11:49;7.13;;;3.25;;
50737;SDS011;36703;48.154;17.126;2023-03-05T15:15:53;5.88;;;3.22;;
50737;SDS011;36703;48.154;17.126;2023-03-05T15:19:54;6.57;;;3.67;;
50737;SDS011;36703;48.154;17.126;2023-03-05T15:23:56;7.20;;;3.50;;
50737;SDS011;36703;48.154;17.126;2023-03-05T15:27:58;4.80;;;2.97;;
50737;SDS011;36703;48.154;17.126;2023-03-05T15:36:02;6.13;;;3.42;;
50737;SDS011;36703;48.154;17.126;2023-03-05T15:40:04;8.10;;;3.13;;
50737;SDS011;36703;48.154;17.126;2023-03-05T15:44:06;8.57;;;3.13;;
50737;SDS011;36703;48.154;17.126;2023-03-05T15:48:08;6.80;;;3.72;;
50737;SDS011;36703;48.154;17.126;2023-03-05T15:52:09;7.55;;;2.97;;
50737;SDS011;36703;48.154;17.126;2023-03-05T15:56:14;6.35;;;3.20;;
50737;SDS011;36703;48.154;17.126;2023-03-05T16:00:18;6.57;;;3.50;;
50737;SDS011;36703;48.154;17.126;2023-03-05T16:04:24;5.47;;;3.10;;
50737;SDS011;36703;48.154;17.126;2023-03-05T16:08:26;5.85;;;3.15;;
50737;SDS011;36703;48.154;17.126;2023-03-05T16:12:30;6.72;;;3.00;;
50737;SDS011;36703;48.154;17.126;2023-03-05T16:16:40;5.00;;;2.90;;
50737;SDS011;36703;48.154;17.126;2023-03-05T16:20:42;6.97;;;3.20;;
50737;SDS011;36703;48.154;17.126;2023-03-05T16:24:44;4.63;;;2.50;;
50737;SDS011;36703;48.154;17.126;2023-03-05T16:28:45;6.57;;;2.92;;
50737;SDS011;36703;48.154;17.126;2023-03-05T16:32:47;4.90;;;2.72;;
50737;SDS011;36703;48.154;17.126;2023-03-05T16:36:49;5.10;;;2.50;;
50737;SDS011;36703;48.154;17.126;2023-03-05T16:40:52;4.22;;;2.20;;
50737;SDS011;36703;48.154;17.126;2023-03-05T16:48:56;4.07;;;2.00;;
50737;SDS011;36703;48.154;17.126;2023-03-05T16:52:58;4.82;;;2.38;;
50737;SDS011;36703;48.154;17.126;2023-03-05T16:56:59;4.20;;;2.47;;
50737;SDS011;36703;48.154;17.126;2023-03-05T17:01:01;3.97;;;2.10;;
50737;SDS011;36703;48.154;17.126;2023-03-05T17:05:03;3.92;;;1.90;;
50737;SDS011;36703;48.154;17.126;2023-03-05T17:09:06;5.95;;;1.67;;
50737;SDS011;36703;48.154;17.126;2023-03-05T17:13:07;4.10;;;1.90;;
50737;SDS011;36703;48.154;17.126;2023-03-05T17:17:09;3.85;;;1.70;;
50737;SDS011;36703;48.154;17.126;2023-03-05T17:21:11;5.22;;;2.05;;
50737;SDS011;36703;48.154;17.126;2023-03-05T17:25:13;6.57;;;1.95;;
50737;SDS011;36703;48.154;17.126;2023-03-05T17:33:18;4.22;;;1.85;;
50737;SDS011;36703;48.154;17.126;2023-03-05T17:37:20;4.95;;;1.80;;
50737;SDS011;36703;48.154;17.126;2023-03-05T17:41:22;2.85;;;1.75;;
50737;SDS011;36703;48.154;17.126;2023-03-05T17:45:24;4.20;;;1.83;;
50737;SDS011;36703;48.154;17.126;2023-03-05T17:49:26;3.35;;;1.80;;
50737;SDS011;36703;48.154;17.126;2023-03-05T17:53:28;4.55;;;2.00;;
50737;SDS011;36703;48.154;17.126;2023-03-05T17:57:29;5.50;;;2.15;;
50737;SDS011;36703;48.154;17.126;2023-03-05T18:01:31;5.28;;;2.10;;
50737;SDS011;36703;48.154;17.126;2023-03-05T18:05:34;4.07;;;1.98;;
50737;SDS011;36703;48.154;17.126;2023-03-05T18:09:36;5.40;;;2.10;;
50737;SDS011;36703;48.154;17.126;2023-03-05T18:13:37;6.90;;;2.28;;
50737;SDS011;36703;48.154;17.126;2023-03-05T18:17:39;5.43;;;2.15;;
50737;SDS011;36703;48.154;17.126;2023-03-05T18:21:41;7.72;;;2.20;;
50737;SDS011;36703;48.154;17.126;2023-03-05T18:25:43;4.93;;;1.95;;
50737;SDS011;36703;48.154;17.126;2023-03-05T18:29:44;4.55;;;2.10;;
50737;SDS011;36703;48.154;17.126;2023-03-05T18:33:46;6.50;;;2.60;;
50737;SDS011;36703;48.154;17.126;2023-03-05T18:37:48;4.13;;;2.03;;
50737;SDS011;36703;48.154;17.126;2023-03-05T18:41:49;4.55;;;2.25;;
50737;SDS011;36703;48.154;17.126;2023-03-05T18:45:52;4.45;;;2.00;;
50737;SDS011;36703;48.154;17.126;2023-03-05T18:49:55;5.15;;;2.10;;
50737;SDS011;36703;48.154;17.126;2023-03-05T18:53:56;4.25;;;2.00;;
50737;SDS011;36703;48.154;17.126;2023-03-05T18:57:58;5.20;;;2.40;;
50737;SDS011;36703;48.154;17.126;2023-03-05T19:01:59;4.97;;;2.55;;
50737;SDS011;36703;48.154;17.126;2023-03-05T19:06:03;5.43;;;2.40;;
50737;SDS011;36703;48.154;17.126;2023-03-05T19:10:07;4.57;;;2.25;;
50737;SDS011;36703;48.154;17.126;2023-03-05T19:14:12;6.47;;;2.35;;
50737;SDS011;36703;48.154;17.126;2023-03-05T19:18:13;4.70;;;2.20;;
50737;SDS011;36703;48.154;17.126;2023-03-05T19:22:36;4.85;;;2.17;;
50737;SDS011;36703;48.154;17.126;2023-03-05T19:26:38;6.32;;;2.50;;
50737;SDS011;36703;48.154;17.126;2023-03-05T19:30:40;6.70;;;2.70;;
50737;SDS011;36703;48.154;17.126;2023-03-05T19:34:42;7.40;;;2.78;;
50737;SDS011;36703;48.154;17.126;2023-03-05T19:38:45;5.00;;;2.72;;
50737;SDS011;36703;48.154;17.126;2023-03-05T19:42:46;5.25;;;2.33;;
50737;SDS011;36703;48.154;17.126;2023-03-05T19:46:48;4.85;;;2.45;;
50737;SDS011;36703;48.154;17.126;2023-03-05T19:50:49;4.18;;;2.10;;
50737;SDS011;36703;48.154;17.126;2023-03-05T19:58:52;5.93;;;2.10;;
50737;SDS011;36703;48.154;17.126;2023-03-05T20:02:54;5.07;;;2.28;;
50737;SDS011;36703;48.154;17.126;2023-03-05T20:14:59;4.70;;;2.33;;
50737;SDS011;36703;48.154;17.126;2023-03-05T20:19:00;5.72;;;2.45;;
50737;SDS011;36703;48.154;17.126;2023-03-05T20:23:03;3.78;;;2.30;;
50737;SDS011;36703;48.154;17.126;2023-03-05T20:27:05;5.93;;;2.53;;
50737;SDS011;36703;48.154;17.126;2023-03-05T20:31:07;5.60;;;2.80;;
50737;SDS011;36703;48.154;17.126;2023-03-05T20:39:15;4.88;;;2.47;;
50737;SDS011;36703;48.154;17.126;2023-03-05T20:43:17;6.10;;;2.58;;
50737;SDS011;36703;48.154;17.126;2023-03-05T20:51:46;4.70;;;2.60;;
50737;SDS011;36703;48.154;17.126;2023-03-05T20:55:49;6.63;;;2.85;;
50737;SDS011;36703;48.154;17.126;2023-03-05T21:03:52;8.38;;;3.17;;
50737;SDS011;36703;48.154;17.126;2023-03-05T21:07:57;5.25;;;2.80;;
50737;SDS011;36703;48.154;17.126;2023-03-05T21:12:00;5.28;;;2.97;;
50737;SDS011;36703;48.154;17.126;2023-03-05T21:16:08;7.50;;;2.85;;
50737;SDS011;36703;48.154;17.126;2023-03-05T21:20:15;6.30;;;2.95;;
50737;SDS011;36703;48.154;17.126;2023-03-05T21:24:32;6.18;;;3.17;;
50737;SDS011;36703;48.154;17.126;2023-03-05T21:29:03;7.65;;;3.00;;
50737;SDS011;36703;48.154;17.126;2023-03-05T21:37:08;6.70;;;2.85;;
50737;SDS011;36703;48.154;17.126;2023-03-05T21:41:10;4.10;;;2.38;;
50737;SDS011;36703;48.154;17.126;2023-03-05T21:45:13;4.43;;;2.33;;
50737;SDS011;36703;48.154;17.126;2023-03-05T21:49:19;7.05;;;2.50;;
50737;SDS011;36703;48.154;17.126;2023-03-05T22:05:25;6.45;;;2.50;;
50737;SDS011;36703;48.154;17.126;2023-03-05T22:09:27;6.13;;;2.47;;
50737;SDS011;36703;48.154;17.126;2023-03-05T22:13:28;4.80;;;2.65;;
50737;SDS011;36703;48.154;17.126;2023-03-05T22:17:30;5.18;;;2.50;;
50737;SDS011;36703;48.154;17.126;2023-03-05T22:25:33;5.03;;;2.58;;
50737;SDS011;36703;48.154;17.126;2023-03-05T22:29:35;4.63;;;2.15;;
50737;SDS011;36703;48.154;17.126;2023-03-05T22:37:38;5.05;;;2.70;;
50737;SDS011;36703;48.154;17.126;2023-03-05T22:41:41;6.75;;;2.55;;
50737;SDS011;36703;48.154;17.126;2023-03-05T22:45:42;7.38;;;3.03;;
50737;SDS011;36703;48.154;17.126;2023-03-05T22:49:44;6.97;;;3.00;;
50737;SDS011;36703;48.154;17.126;2023-03-05T22:57:47;7.03;;;3.00;;
50737;SDS011;36703;48.154;17.126;2023-03-05T23:01:49;5.93;;;2.95;;
50737;SDS011;36703;48.154;17.126;2023-03-05T23:14:01;7.65;;;3.10;;
50737;SDS011;36703;48.154;17.126;2023-03-05T23:18:03;7.22;;;2.97;;
50737;SDS011;36703;48.154;17.126;2023-03-05T23:22:09;9.02;;;3.60;;
50737;SDS011;36703;48.154;17.126;2023-03-05T23:26:12;7.57;;;3.72;;
50737;SDS011;36703;48.154;17.126;2023-03-05T23:30:24;7.57;;;3.88;;
50737;SDS011;36703;48.154;17.126;2023-03-05T23:34:27;8.68;;;3.75;;
50737;SDS011;36703;48.154;17.126;2023-03-05T23:38:31;7.65;;;3.90;;
50737;SDS011;36703;48.154;17.126;2023-03-05T23:42:32;11.77;;;5.10;;
50737;SDS011;36703;48.154;17.126;2023-03-05T23:46:34;8.65;;;4.40;;
50737;SDS011;36703;48.154;17.126;2023-03-05T23:50:37;8.30;;;4.30;;
50737;SDS011;36703;48.154;17.126;2023-03-05T23:54:41;12.20;;;4.60;;
50737;SDS011;36703;48.154;17.126;2023-03-05T23:58:43;10.93;;;4.90;;
